createdAt,value
2018-03-11T00:00:37.408Z,91.80
2018-03-11T00:03:06.132Z,91.80
2018-03-11T00:05:34.783Z,91.60
2018-03-11T00:08:03.512Z,91.90
2018-03-11T00:10:32.309Z,91.90
2018-03-11T00:13:01.011Z,91.50
2018-03-11T00:15:30.449Z,91.90
2018-03-11T00:17:59.081Z,91.90
2018-03-11T00:20:27.721Z,91.40
2018-03-11T00:22:56.382Z,91.00
2018-03-11T00:25:25.784Z,91.10
2018-03-11T00:27:55.188Z,90.80
2018-03-11T00:30:24.604Z,91.10
2018-03-11T00:32:54.016Z,91.30
2018-03-11T00:35:22.674Z,91.30
2018-03-11T00:37:51.304Z,91.50
2018-03-11T00:40:19.929Z,91.70
2018-03-11T00:42:48.575Z,91.80
2018-03-11T00:45:17.229Z,92.10
2018-03-11T00:47:46.635Z,92.10
2018-03-11T00:50:16.046Z,92.40
2018-03-11T00:52:45.444Z,92.30
2018-03-11T00:55:14.904Z,92.20
2018-03-11T00:57:43.536Z,92.20
2018-03-11T01:00:12.164Z,92.20
2018-03-11T01:02:40.832Z,91.80
2018-03-11T01:05:09.461Z,92.10
2018-03-11T01:07:38.130Z,91.90
2018-03-11T01:10:06.807Z,92.20
2018-03-11T01:12:35.606Z,92.30
2018-03-11T01:15:03.927Z,92.30
2018-03-11T01:17:32.749Z,92.30
2018-03-11T01:20:01.382Z,92.40
2018-03-11T01:22:30.056Z,92.50
2018-03-11T01:24:58.688Z,92.60
2018-03-11T01:27:28.088Z,92.60
2018-03-11T01:29:57.504Z,92.50
2018-03-11T01:32:26.133Z,92.40
2018-03-11T01:34:54.761Z,92.50
2018-03-11T01:37:24.190Z,93.10
2018-03-11T01:39:52.822Z,93.10
2018-03-11T01:42:21.454Z,93.10
2018-03-11T01:44:50.089Z,93.00
2018-03-11T01:47:18.726Z,92.30
2018-03-11T01:49:47.062Z,92.10
2018-03-11T01:52:15.701Z,92.30
2018-03-11T01:54:44.328Z,92.20
2018-03-11T01:57:12.977Z,92.10
2018-03-11T01:59:41.602Z,92.30
2018-03-11T02:02:10.271Z,92.70
2018-03-11T02:04:38.906Z,92.40
2018-03-11T02:07:08.309Z,92.40
2018-03-11T02:09:37.719Z,92.50
2018-03-11T02:12:06.036Z,92.50
2018-03-11T02:14:34.708Z,92.80
2018-03-11T02:17:03.336Z,92.70
2018-03-11T02:19:31.971Z,92.60
2018-03-11T02:22:00.732Z,92.80
2018-03-11T02:24:30.137Z,93.20
2018-03-11T02:26:58.777Z,93.20
2018-03-11T02:29:27.440Z,93.20
2018-03-11T02:31:56.074Z,93.00
2018-03-11T02:34:24.938Z,93.80
2018-03-11T02:36:53.573Z,93.30
2018-03-11T02:39:22.986Z,92.70
2018-03-11T02:41:52.424Z,93.40
2018-03-11T02:44:20.728Z,93.40
2018-03-11T02:46:49.378Z,93.50
2018-03-11T02:49:18.025Z,93.50
2018-03-11T02:51:46.678Z,93.30
2018-03-11T02:54:15.508Z,93.50
2018-03-11T02:56:44.584Z,93.30
2018-03-11T02:59:13.229Z,93.30
2018-03-11T03:01:41.870Z,93.30
2018-03-11T03:04:10.621Z,93.30
2018-03-11T03:06:39.253Z,93.10
2018-03-11T03:09:08.675Z,93.40
2018-03-11T03:11:38.297Z,93.60
2018-03-11T03:14:06.922Z,93.50
2018-03-11T03:16:35.552Z,93.60
2018-03-11T03:19:04.200Z,93.70
2018-03-11T03:21:32.864Z,94.00
2018-03-11T03:24:01.499Z,93.90
2018-03-11T03:26:30.901Z,94.00
2018-03-11T03:29:00.313Z,94.20
2018-03-11T03:31:29.712Z,94.50
2018-03-11T03:33:59.150Z,94.70
2018-03-11T03:36:27.785Z,94.70
2018-03-11T03:38:56.413Z,94.70
2018-03-11T03:41:25.048Z,94.30
2018-03-11T03:43:53.681Z,94.00
2018-03-11T03:46:22.506Z,94.00
2018-03-11T03:48:51.173Z,94.20
2018-03-11T03:51:19.856Z,94.30
2018-03-11T03:53:48.480Z,94.50
2018-03-11T03:56:17.157Z,94.80
2018-03-11T03:58:45.820Z,94.40
2018-03-11T04:01:14.480Z,94.60
2018-03-11T04:03:43.109Z,94.80
2018-03-11T04:06:11.746Z,94.50
2018-03-11T04:08:40.411Z,94.40
2018-03-11T04:11:09.830Z,94.80
2018-03-11T04:13:39.242Z,94.60
2018-03-11T04:16:07.873Z,94.60
2018-03-11T04:18:36.550Z,94.30
2018-03-11T04:21:05.188Z,95.10
2018-03-11T04:23:33.826Z,94.70
2018-03-11T04:26:02.488Z,94.10
2018-03-11T04:28:31.150Z,94.60
2018-03-11T04:31:00.580Z,94.60
2018-03-11T04:33:29.209Z,94.60
2018-03-11T04:35:57.860Z,94.80
2018-03-11T04:38:26.565Z,94.90
2018-03-11T04:40:55.205Z,94.50
2018-03-11T04:43:24.622Z,94.80
2018-03-11T04:45:53.272Z,94.80
2018-03-11T04:48:21.941Z,94.80
2018-03-11T04:50:50.564Z,94.90
2018-03-11T04:53:19.211Z,94.80
2018-03-11T04:55:47.863Z,94.80
2018-03-11T04:58:16.495Z,95.00
2018-03-11T05:00:45.176Z,94.70
2018-03-11T05:03:13.814Z,95.00
2018-03-11T05:05:42.469Z,95.00
2018-03-11T05:08:11.127Z,95.00
2018-03-11T05:10:39.778Z,95.10
2018-03-11T05:13:08.417Z,95.40
2018-03-11T05:15:37.060Z,95.50
2018-03-11T05:18:05.700Z,95.60
2018-03-11T05:20:35.118Z,95.80
2018-03-11T05:23:04.572Z,95.50
2018-03-11T05:25:33.344Z,95.50
2018-03-11T05:28:01.978Z,95.60
2018-03-11T05:30:30.650Z,95.40
2018-03-11T05:32:59.293Z,94.80
2018-03-11T05:35:27.936Z,94.40
2018-03-11T05:37:56.585Z,94.50
2018-03-11T05:40:25.233Z,94.90
2018-03-11T05:42:54.664Z,95.10
2018-03-11T05:45:23.317Z,95.10
2018-03-11T05:47:52.732Z,94.70
2018-03-11T05:50:21.372Z,94.70
2018-03-11T05:52:50.061Z,94.20
2018-03-11T05:55:18.708Z,94.20
2018-03-11T05:57:47.361Z,94.60
2018-03-11T06:00:16.798Z,94.90
2018-03-11T06:02:45.438Z,94.80
2018-03-11T06:05:14.069Z,94.50
2018-03-11T06:07:42.777Z,94.80
2018-03-11T06:10:11.408Z,94.60
2018-03-11T06:12:40.845Z,94.40
2018-03-11T06:15:09.481Z,94.40
2018-03-11T06:17:38.109Z,94.80
2018-03-11T06:20:06.772Z,94.00
2018-03-11T06:22:35.417Z,94.30
2018-03-11T06:25:03.713Z,94.50
2018-03-11T06:27:32.352Z,94.40
2018-03-11T06:30:01.001Z,95.00
2018-03-11T06:32:30.435Z,94.20
2018-03-11T06:35:00.036Z,93.70
2018-03-11T06:37:28.664Z,93.70
2018-03-11T06:39:57.304Z,93.80
2018-03-11T06:42:26.752Z,93.10
2018-03-11T06:44:55.393Z,93.10
2018-03-11T06:47:24.824Z,93.20
2018-03-11T06:49:53.510Z,93.20
2018-03-11T06:52:22.154Z,92.50
2018-03-11T06:54:50.830Z,92.10
2018-03-11T06:57:19.470Z,92.10
2018-03-11T06:59:48.133Z,92.30
2018-03-11T07:02:16.821Z,92.30
2018-03-11T07:04:46.448Z,91.40
2018-03-11T07:07:15.084Z,85.60
2018-03-11T07:09:45.982Z,76.20
2018-03-11T07:12:15.538Z,65.30
2018-03-11T07:14:46.047Z,63.10
2018-03-11T07:17:14.571Z,56.90
2018-03-11T07:19:43.832Z,54.30
2018-03-11T07:22:15.911Z,52.20
2018-03-11T07:24:46.708Z,52.30
2018-03-11T07:27:18.972Z,50.50
2018-03-11T07:29:47.536Z,50.50
2018-03-11T07:32:16.143Z,47.00
2018-03-11T07:34:44.593Z,41.90
2018-03-11T07:37:13.002Z,39.50
2018-03-11T07:39:41.405Z,44.20
2018-03-11T07:42:10.552Z,36.90
2018-03-11T07:44:38.938Z,36.90
2018-03-11T07:47:07.336Z,34.10
2018-03-11T07:49:35.737Z,33.30
2018-03-11T07:52:03.816Z,31.10
2018-03-11T07:54:32.644Z,35.60
2018-03-11T07:57:01.208Z,35.60
2018-03-11T07:59:30.352Z,35.60
2018-03-11T08:01:59.110Z,35.40
2018-03-11T08:04:27.727Z,36.20
2018-03-11T08:06:56.116Z,35.40
2018-03-11T08:09:24.504Z,34.40
2018-03-11T08:11:52.952Z,34.80
2018-03-11T08:14:21.336Z,32.20
2018-03-11T08:16:49.706Z,30.40
2018-03-11T08:19:18.104Z,29.90
2018-03-11T08:21:46.521Z,29.50
2018-03-11T08:24:15.777Z,27.00
2018-03-11T08:26:44.191Z,27.00
2018-03-11T08:29:12.600Z,25.70
2018-03-11T08:31:41.008Z,25.00
2018-03-11T08:34:09.373Z,24.30
2018-03-11T08:36:37.737Z,24.40
2018-03-11T08:39:06.950Z,24.80
2018-03-11T08:41:35.486Z,24.80
2018-03-11T08:44:04.245Z,23.50
2018-03-11T08:46:32.661Z,23.60
2018-03-11T08:49:01.040Z,24.70
2018-03-11T08:51:29.418Z,25.60
2018-03-11T08:53:57.948Z,27.20
2018-03-11T08:56:26.317Z,25.70
2018-03-11T08:58:55.488Z,25.00
2018-03-11T09:01:23.878Z,25.00
2018-03-11T09:03:52.245Z,25.40
2018-03-11T09:06:20.647Z,24.10
2018-03-11T09:08:49.845Z,25.70
2018-03-11T09:11:19.047Z,25.10
2018-03-11T09:13:47.484Z,25.10
2018-03-11T09:16:15.848Z,26.40
2018-03-11T09:18:44.245Z,25.80
2018-03-11T09:21:12.416Z,26.00
2018-03-11T09:23:41.544Z,26.20
2018-03-11T09:26:09.344Z,26.20
2018-03-11T09:28:37.821Z,27.00
2018-03-11T09:31:06.204Z,29.00
2018-03-11T09:33:34.684Z,32.40
2018-03-11T09:36:03.913Z,34.10
2018-03-11T09:38:32.283Z,34.10
2018-03-11T09:41:00.656Z,32.30
2018-03-11T09:43:29.052Z,30.90
2018-03-11T09:45:57.435Z,29.30
2018-03-11T09:48:25.807Z,30.40
2018-03-11T09:50:54.266Z,33.40
2018-03-11T09:53:23.432Z,37.50
2018-03-11T09:55:51.836Z,37.50
2018-03-11T09:58:21.025Z,39.10
2018-03-11T10:00:49.460Z,38.90
2018-03-11T10:03:17.917Z,39.10
2018-03-11T10:05:46.384Z,38.60
2018-03-11T10:08:15.516Z,41.00
2018-03-11T10:10:43.895Z,41.00
2018-03-11T10:13:12.317Z,38.80
2018-03-11T10:15:40.693Z,39.00
2018-03-11T10:18:09.097Z,42.90
2018-03-11T10:20:37.974Z,43.50
2018-03-11T10:23:06.377Z,43.40
2018-03-11T10:25:35.320Z,38.40
2018-03-11T10:28:04.464Z,38.00
2018-03-11T10:30:33.633Z,40.10
2018-03-11T10:33:02.045Z,40.00
2018-03-11T10:35:30.492Z,39.60
2018-03-11T10:37:59.045Z,42.20
2018-03-11T10:40:27.412Z,41.60
2018-03-11T10:42:55.790Z,44.20
2018-03-11T10:45:24.194Z,40.70
2018-03-11T10:47:52.560Z,43.30
2018-03-11T10:50:20.928Z,43.10
2018-03-11T10:52:49.324Z,44.40
2018-03-11T10:55:17.690Z,45.30
2018-03-11T10:57:46.064Z,46.40
2018-03-11T11:00:14.277Z,45.60
2018-03-11T11:02:42.452Z,46.20
2018-03-11T11:05:10.653Z,44.40
2018-03-11T11:07:39.065Z,43.90
2018-03-11T11:10:07.441Z,45.40
2018-03-11T11:12:36.667Z,42.40
2018-03-11T11:15:05.092Z,42.40
2018-03-11T11:17:33.498Z,42.40
2018-03-11T11:20:01.880Z,44.70
2018-03-11T11:22:31.031Z,41.40
2018-03-11T11:24:59.426Z,41.40
2018-03-11T11:27:27.805Z,41.20
2018-03-11T11:29:56.185Z,41.20
2018-03-11T11:32:24.594Z,38.50
2018-03-11T11:34:53.742Z,40.70
2018-03-11T11:37:22.160Z,40.60
2018-03-11T11:39:50.553Z,42.00
2018-03-11T11:42:19.704Z,41.90
2018-03-11T11:44:48.083Z,41.90
2018-03-11T11:47:16.517Z,43.40
2018-03-11T11:49:44.897Z,45.90
2018-03-11T11:52:14.101Z,48.70
2018-03-11T11:54:42.518Z,48.50
2018-03-11T11:57:11.001Z,49.90
2018-03-11T11:59:39.433Z,50.10
2018-03-11T12:02:08.649Z,47.70
2018-03-11T12:04:37.080Z,47.70
2018-03-11T12:07:05.655Z,49.40
2018-03-11T12:09:34.516Z,49.60
2018-03-11T12:12:02.965Z,51.10
2018-03-11T12:14:31.961Z,51.00
2018-03-11T12:17:01.127Z,50.90
2018-03-11T12:19:29.573Z,50.80
2018-03-11T12:21:58.016Z,51.10
2018-03-11T12:24:27.196Z,50.60
2018-03-11T12:26:55.647Z,50.80
2018-03-11T12:29:24.030Z,49.20
2018-03-11T12:31:52.476Z,51.50
2018-03-11T12:34:21.713Z,49.50
2018-03-11T12:36:50.354Z,49.60
2018-03-11T12:39:20.414Z,51.20
2018-03-11T12:41:50.314Z,51.20
2018-03-11T12:44:18.787Z,51.00
2018-03-11T12:46:47.981Z,52.70
2018-03-11T12:49:17.191Z,53.40
2018-03-11T12:51:45.931Z,53.40
2018-03-11T12:54:14.187Z,52.90
2018-03-11T12:56:42.578Z,53.50
2018-03-11T12:59:10.981Z,54.10
2018-03-11T13:01:39.935Z,54.90
2018-03-11T13:04:09.623Z,54.10
2018-03-11T13:06:38.657Z,54.10
2018-03-11T13:09:07.539Z,52.40
2018-03-11T13:11:36.779Z,51.60
2018-03-11T13:14:05.670Z,51.40
2018-03-11T13:16:34.493Z,52.30
2018-03-11T13:19:03.418Z,52.90
2018-03-11T13:21:36.120Z,53.30
2018-03-11T13:24:05.970Z,53.10
2018-03-11T13:26:35.342Z,54.00
2018-03-11T13:29:05.065Z,55.10
2018-03-11T13:31:33.940Z,56.30
2018-03-11T13:34:14.912Z,56.10
2018-03-11T13:36:43.918Z,56.90
2018-03-11T13:39:24.407Z,58.00
2018-03-11T13:41:53.296Z,57.90
2018-03-11T13:44:22.271Z,58.50
2018-03-11T13:47:02.542Z,59.10
2018-03-11T13:49:31.254Z,59.00
2018-03-11T13:52:11.042Z,59.20
2018-03-11T13:54:41.095Z,58.30
2018-03-11T13:57:32.878Z,57.70
2018-03-11T14:00:01.980Z,57.50
2018-03-11T14:02:31.626Z,56.30
2018-03-11T14:05:01.275Z,57.00
2018-03-11T14:07:31.024Z,56.40
2018-03-11T14:10:00.212Z,55.30
2018-03-11T14:12:29.112Z,53.30
2018-03-11T14:15:00.438Z,51.70
2018-03-11T14:17:30.189Z,51.50
2018-03-11T14:19:59.075Z,51.50
2018-03-11T14:22:28.616Z,53.40
2018-03-11T14:24:58.467Z,54.90
2018-03-11T14:27:27.593Z,56.20
2018-03-11T14:29:56.473Z,57.50
2018-03-11T14:32:26.171Z,59.10
2018-03-11T14:34:55.896Z,59.00
2018-03-11T14:37:26.738Z,59.20
2018-03-11T14:39:55.612Z,59.20
2018-03-11T14:42:24.805Z,60.50
2018-03-11T14:44:53.714Z,60.30
2018-03-11T14:47:23.729Z,61.20
2018-03-11T14:49:53.974Z,61.20
2018-03-11T14:52:24.109Z,62.70
2018-03-11T14:54:52.851Z,64.20
2018-03-11T14:57:21.560Z,65.30
2018-03-11T14:59:50.348Z,66.40
2018-03-11T15:02:18.857Z,66.70
2018-03-11T15:04:47.663Z,67.80
2018-03-11T15:07:17.173Z,68.80
2018-03-11T15:09:46.179Z,69.40
2018-03-11T15:12:15.172Z,70.40
2018-03-11T15:14:43.842Z,71.00
2018-03-11T15:17:12.690Z,72.10
2018-03-11T15:19:41.432Z,73.20
2018-03-11T15:22:10.946Z,73.20
2018-03-11T15:24:39.359Z,74.20
2018-03-11T15:27:07.796Z,74.80
2018-03-11T15:29:37.000Z,76.00
2018-03-11T15:32:06.144Z,76.10
2018-03-11T15:34:34.519Z,76.00
2018-03-11T15:37:03.424Z,76.20
2018-03-11T15:39:31.862Z,76.80
2018-03-11T15:42:00.246Z,77.60
2018-03-11T15:44:28.637Z,77.60
2018-03-11T15:46:57.019Z,78.70
2018-03-11T15:49:25.424Z,78.10
2018-03-11T15:51:55.548Z,79.20
2018-03-11T15:54:23.966Z,79.50
2018-03-11T15:56:54.181Z,79.60
2018-03-11T15:59:22.557Z,79.60
2018-03-11T16:01:52.912Z,79.70
2018-03-11T16:04:21.606Z,79.80
2018-03-11T16:06:50.146Z,79.40
2018-03-11T16:09:19.324Z,80.80
2018-03-11T16:11:47.762Z,80.80
2018-03-11T16:14:17.913Z,80.90
2018-03-11T16:16:46.337Z,82.10
2018-03-11T16:19:14.945Z,83.40
2018-03-11T16:21:43.403Z,82.90
2018-03-11T16:24:12.138Z,83.60
2018-03-11T16:26:40.649Z,83.80
2018-03-11T16:29:10.292Z,86.10
2018-03-11T16:31:39.494Z,85.20
2018-03-11T16:34:08.163Z,85.20
2018-03-11T16:36:37.425Z,86.70
2018-03-11T16:39:05.308Z,86.60
2018-03-11T16:41:33.813Z,86.70
2018-03-11T16:44:02.199Z,87.40
2018-03-11T16:46:30.918Z,88.70
2018-03-11T16:49:04.103Z,88.70
2018-03-11T16:52:09.561Z,89.50
2018-03-11T16:54:37.990Z,89.40
2018-03-11T16:57:06.669Z,89.60
2018-03-11T16:59:38.129Z,88.70
2018-03-11T17:02:06.529Z,89.00
2018-03-11T17:04:35.346Z,89.20
2018-03-11T17:07:04.067Z,89.70
2018-03-11T17:09:33.481Z,90.40
2018-03-11T17:12:02.193Z,90.40
2018-03-11T17:14:30.905Z,90.30
2018-03-11T17:16:59.596Z,90.60
2018-03-11T17:19:28.076Z,90.30
2018-03-11T17:21:56.760Z,90.20
2018-03-11T17:24:25.487Z,90.50
2018-03-11T17:26:54.941Z,92.10
2018-03-11T17:29:23.646Z,92.10
2018-03-11T17:31:52.552Z,91.90
2018-03-11T17:34:21.222Z,91.60
2018-03-11T17:36:49.931Z,92.60
2018-03-11T17:39:19.375Z,91.00
2018-03-11T17:41:48.104Z,91.00
2018-03-11T17:44:16.766Z,91.30
2018-03-11T17:46:46.300Z,91.40
2018-03-11T17:49:15.037Z,91.50
2018-03-11T17:51:43.769Z,91.90
2018-03-11T17:54:12.431Z,92.40
2018-03-11T17:56:41.114Z,91.80
2018-03-11T17:59:09.771Z,91.70
2018-03-11T18:01:39.188Z,92.00
2018-03-11T18:04:07.551Z,92.00
2018-03-11T18:06:37.076Z,92.60
2018-03-11T18:09:05.061Z,92.60
2018-03-11T18:11:33.716Z,92.60
2018-03-11T18:14:02.373Z,93.10
2018-03-11T18:16:31.034Z,93.30
2018-03-11T18:18:59.706Z,94.00
2018-03-11T18:21:28.348Z,93.50
2018-03-11T18:23:56.984Z,93.00
2018-03-11T18:26:25.629Z,92.90
2018-03-11T18:28:54.284Z,93.40
2018-03-11T18:31:22.933Z,93.20
2018-03-11T18:33:51.594Z,93.20
2018-03-11T18:36:20.243Z,93.20
2018-03-11T18:38:48.872Z,93.30
2018-03-11T18:41:17.526Z,94.00
2018-03-11T18:43:46.166Z,93.60
2018-03-11T18:46:14.805Z,93.10
2018-03-11T18:48:43.672Z,92.80
2018-03-11T18:51:12.349Z,93.40
2018-03-11T18:53:41.017Z,93.60
2018-03-11T18:56:09.691Z,93.20
2018-03-11T18:58:38.321Z,93.50
2018-03-11T19:01:06.997Z,94.00
2018-03-11T19:03:35.758Z,94.70
2018-03-11T19:06:04.573Z,94.10
2018-03-11T19:08:33.266Z,94.00
2018-03-11T19:11:01.968Z,93.80
2018-03-11T19:13:30.648Z,94.00
2018-03-11T19:15:59.340Z,93.90
2018-03-11T19:18:27.981Z,94.20
2018-03-11T19:20:56.612Z,94.10
2018-03-11T19:23:25.313Z,93.90
2018-03-11T19:25:53.985Z,94.30
2018-03-11T19:28:22.673Z,94.50
2018-03-11T19:30:51.319Z,95.00
2018-03-11T19:33:19.970Z,94.40
2018-03-11T19:35:48.638Z,94.30
2018-03-11T19:38:17.284Z,95.00
2018-03-11T19:40:45.925Z,95.40
2018-03-11T19:43:14.613Z,94.90
2018-03-11T19:45:43.393Z,94.20
2018-03-11T19:48:12.047Z,94.60
2018-03-11T19:50:40.717Z,94.60
2018-03-11T19:53:09.351Z,94.60
2018-03-11T19:55:37.988Z,94.70
2018-03-11T19:58:06.673Z,94.70
2018-03-11T20:00:35.299Z,95.20
2018-03-11T20:03:03.933Z,94.50
2018-03-11T20:05:33.364Z,94.50
2018-03-11T20:08:01.989Z,94.50
2018-03-11T20:10:30.653Z,94.50
2018-03-11T20:12:59.121Z,94.90
2018-03-11T20:15:27.777Z,94.20
2018-03-11T20:17:57.171Z,94.70
2018-03-11T20:20:25.813Z,94.70
2018-03-11T20:22:54.481Z,94.60
2018-03-11T20:25:23.159Z,95.40
2018-03-11T20:27:52.045Z,94.60
2018-03-11T20:30:20.684Z,94.70
2018-03-11T20:32:49.504Z,94.60
2018-03-11T20:35:19.074Z,95.20
2018-03-11T20:37:47.733Z,95.20
2018-03-11T20:40:16.367Z,95.10
2018-03-11T20:42:45.049Z,95.00
2018-03-11T20:45:13.722Z,95.10
2018-03-11T20:47:42.380Z,94.60
2018-03-11T20:50:11.032Z,94.70
2018-03-11T20:52:40.448Z,95.10
2018-03-11T20:55:09.250Z,95.10
2018-03-11T20:57:39.662Z,95.70
2018-03-11T21:00:09.056Z,95.60
2018-03-11T21:02:38.615Z,96.30
2018-03-11T21:05:07.280Z,96.30
2018-03-11T21:07:35.960Z,96.00
2018-03-11T21:10:03.946Z,95.30
2018-03-11T21:12:32.589Z,95.20
2018-03-11T21:15:01.237Z,95.40
2018-03-11T21:17:29.934Z,96.00
2018-03-11T21:19:58.592Z,96.90
2018-03-11T21:22:27.239Z,96.10
2018-03-11T21:24:56.651Z,95.40
2018-03-11T21:27:26.097Z,95.40
2018-03-11T21:29:54.744Z,95.40
2018-03-11T21:32:24.152Z,96.40
2018-03-11T21:34:53.580Z,96.30
2018-03-11T21:37:22.220Z,96.30
2018-03-11T21:39:50.852Z,95.80
2018-03-11T21:42:19.522Z,95.70
2018-03-11T21:44:48.185Z,95.80
2018-03-11T21:47:16.816Z,95.70
2018-03-11T21:49:45.590Z,95.60
2018-03-11T21:52:14.410Z,95.70
2018-03-11T21:54:43.051Z,95.80
2018-03-11T21:57:12.478Z,95.50
2018-03-11T21:59:41.114Z,95.50
2018-03-11T22:02:09.445Z,95.80
2018-03-11T22:04:38.096Z,96.50
2018-03-11T22:07:07.501Z,96.20
2018-03-11T22:09:36.961Z,95.90
2018-03-11T22:12:05.609Z,95.90
2018-03-11T22:14:34.245Z,95.80
2018-03-11T22:17:02.897Z,96.10
2018-03-11T22:19:31.547Z,97.70
2018-03-11T22:22:00.783Z,96.00
2018-03-11T22:24:29.449Z,96.00
2018-03-11T22:26:58.853Z,96.70
2018-03-11T22:29:28.301Z,96.10
2018-03-11T22:31:56.956Z,96.10
2018-03-11T22:34:25.590Z,96.50
2018-03-11T22:36:54.240Z,97.00
2018-03-11T22:39:22.895Z,96.80
2018-03-11T22:41:52.305Z,96.90
2018-03-11T22:44:20.951Z,96.80
2018-03-11T22:46:49.621Z,96.60
2018-03-11T22:49:18.284Z,96.50
2018-03-11T22:51:46.916Z,96.70
2018-03-11T22:54:15.557Z,97.30
2018-03-11T22:56:44.216Z,97.60
2018-03-11T22:59:13.620Z,97.00
2018-03-11T23:01:43.030Z,97.10
2018-03-11T23:04:11.702Z,97.10
2018-03-11T23:06:41.100Z,97.00
2018-03-11T23:09:09.733Z,97.10
2018-03-11T23:11:38.377Z,97.00
2018-03-11T23:14:07.455Z,97.30
2018-03-11T23:16:36.110Z,97.30
2018-03-11T23:19:15.816Z,97.20
2018-03-11T23:21:44.631Z,97.80
2018-03-11T23:24:13.290Z,97.80
2018-03-11T23:26:42.709Z,97.10
2018-03-11T23:29:11.341Z,97.10
2018-03-11T23:31:39.996Z,97.40
2018-03-11T23:34:08.644Z,97.50
2018-03-11T23:36:37.305Z,97.70
2018-03-11T23:39:05.948Z,97.70
2018-03-11T23:41:34.587Z,97.70
2018-03-11T23:44:03.249Z,97.60
2018-03-11T23:46:31.889Z,98.00
2018-03-11T23:49:01.394Z,97.80
2018-03-11T23:51:30.825Z,97.40
2018-03-11T23:53:59.591Z,97.40
2018-03-11T23:56:28.241Z,97.30
2018-03-11T23:58:56.905Z,97.80
